createdAt,value
2019-01-25T00:00:02.989Z,1014
2019-01-25T00:01:03.019Z,1013.9
2019-01-25T00:02:03.769Z,1013.9
2019-01-25T00:03:10.870Z,1014
2019-01-25T00:04:03.289Z,1014.1
2019-01-25T00:05:03.638Z,1014.1
2019-01-25T00:06:03.882Z,1014.1
2019-01-25T00:07:03.393Z,1014
2019-01-25T00:08:02.614Z,1014.1
2019-01-25T00:09:02.512Z,1014.1
2019-01-25T00:10:03.894Z,1014.1
2019-01-25T00:11:03.121Z,1014.1
2019-01-25T00:12:03.372Z,1014.1
2019-01-25T00:13:03.365Z,1014
2019-01-25T00:14:03.677Z,1014.1
2019-01-25T00:15:03.045Z,1014.2
2019-01-25T00:16:03.321Z,1014.2
2019-01-25T00:17:03.461Z,1014.1
2019-01-25T00:18:03.395Z,1014.1
2019-01-25T00:19:03.242Z,1014.1
2019-01-25T00:20:04.511Z,1014.1
2019-01-25T00:21:03.346Z,1014.1
2019-01-25T00:22:03.879Z,1014.1
2019-01-25T00:23:03.279Z,1014.1
2019-01-25T00:24:07.600Z,1014
2019-01-25T00:25:04.271Z,1014.1
2019-01-25T00:26:03.099Z,1014.1
2019-01-25T00:27:03.238Z,1014.1
2019-01-25T00:28:03.182Z,1014.1
2019-01-25T00:29:03.171Z,1014.1
2019-01-25T00:30:03.019Z,1014.1
2019-01-25T00:31:03.369Z,1014.2
2019-01-25T00:32:03.595Z,1014.1
2019-01-25T00:33:03.843Z,1014.1
2019-01-25T00:34:03.244Z,1014.2
2019-01-25T00:35:03.062Z,1014.2
2019-01-25T00:36:03.023Z,1014.2
2019-01-25T00:37:02.685Z,1014.2
2019-01-25T00:38:03.301Z,1014.2
2019-01-25T00:39:03.702Z,1014.3
2019-01-25T00:40:06.911Z,1014.3
2019-01-25T00:41:04.039Z,1014.2
2019-01-25T00:42:03.752Z,1014.2
2019-01-25T00:43:04.016Z,1014.2
2019-01-25T00:44:03.221Z,1014.2
2019-01-25T00:45:03.240Z,1014.2
2019-01-25T00:46:03.253Z,1014.2
2019-01-25T00:47:03.633Z,1014.2
2019-01-25T00:48:02.678Z,1014.2
2019-01-25T00:49:03.419Z,1014.3
2019-01-25T00:50:03.907Z,1014.3
2019-01-25T00:51:03.250Z,1014.3
2019-01-25T00:52:03.504Z,1014.3
2019-01-25T00:53:03.036Z,1014.3
2019-01-25T00:54:03.960Z,1014.3
2019-01-25T00:55:02.889Z,1014.3
2019-01-25T00:56:03.259Z,1014.4
2019-01-25T00:57:03.309Z,1014.4
2019-01-25T00:58:03.298Z,1014.4
2019-01-25T00:59:03.119Z,1014.4
2019-01-25T01:00:03.397Z,1014.4
2019-01-25T01:01:03.133Z,1014.4
2019-01-25T01:02:03.029Z,1014.3
2019-01-25T01:03:03.715Z,1014.4
2019-01-25T01:04:03.177Z,1014.4
2019-01-25T01:05:03.222Z,1014.4
2019-01-25T01:06:03.577Z,1014.4
2019-01-25T01:07:03.907Z,1014.4
2019-01-25T01:08:02.949Z,1014.4
2019-01-25T01:09:03.968Z,1014.4
2019-01-25T01:10:03.806Z,1014.4
2019-01-25T01:11:03.332Z,1014.5
2019-01-25T01:12:03.041Z,1014.5
2019-01-25T01:13:03.650Z,1014.4
2019-01-25T01:14:03.590Z,1014.4
2019-01-25T01:15:03.574Z,1014.4
2019-01-25T01:16:03.849Z,1014.5
2019-01-25T01:17:03.953Z,1014.4
2019-01-25T01:18:03.390Z,1014.4
2019-01-25T01:19:03.112Z,1014.6
2019-01-25T01:20:03.815Z,1014.5
2019-01-25T01:21:03.865Z,1014.5
2019-01-25T01:22:03.739Z,1014.6
2019-01-25T01:23:02.980Z,1014.6
2019-01-25T01:24:03.997Z,1014.5
2019-01-25T01:25:03.139Z,1014.5
2019-01-25T01:26:03.255Z,1014.7
2019-01-25T01:27:03.175Z,1014.6
2019-01-25T01:28:03.382Z,1014.7
2019-01-25T01:29:03.621Z,1014.7
2019-01-25T01:30:03.115Z,1014.8
2019-01-25T01:31:03.678Z,1014.7
2019-01-25T01:32:03.586Z,1014.7
2019-01-25T01:33:03.198Z,1014.7
2019-01-25T01:34:04.009Z,1014.7
2019-01-25T01:35:03.132Z,1014.7
2019-01-25T01:36:03.173Z,1014.7
2019-01-25T01:37:03.052Z,1014.7
2019-01-25T01:38:03.415Z,1014.7
2019-01-25T01:39:03.815Z,1014.7
2019-01-25T01:40:04.003Z,1014.8
2019-01-25T01:41:03.669Z,1014.7
2019-01-25T01:42:03.441Z,1014.7
2019-01-25T01:43:03.466Z,1014.7
2019-01-25T01:44:03.405Z,1014.7
2019-01-25T01:45:03.615Z,1014.7
2019-01-25T01:46:03.871Z,1014.8
2019-01-25T01:47:03.685Z,1014.9
2019-01-25T01:48:03.651Z,1014.9
2019-01-25T01:49:03.009Z,1014.9
2019-01-25T01:50:03.230Z,1014.9
2019-01-25T01:51:02.843Z,1014.9
2019-01-25T01:52:02.888Z,1014.9
2019-01-25T01:53:03.206Z,1014.9
2019-01-25T01:54:03.694Z,1015
2019-01-25T01:55:02.557Z,1015.1
2019-01-25T01:56:03.484Z,1015.1
2019-01-25T01:57:03.633Z,1015.1
2019-01-25T01:58:02.964Z,1015.1
2019-01-25T01:59:03.688Z,1015.1
2019-01-25T02:00:03.176Z,1015
2019-01-25T02:01:03.906Z,1015
2019-01-25T02:02:03.151Z,1015
2019-01-25T02:03:03.316Z,1015.1
2019-01-25T02:04:03.392Z,1015
2019-01-25T02:05:03.328Z,1015
2019-01-25T02:06:03.607Z,1015
2019-01-25T02:07:03.850Z,1015
2019-01-25T02:08:02.974Z,1015
2019-01-25T02:09:03.588Z,1015
2019-01-25T02:10:03.659Z,1015
2019-01-25T02:11:03.190Z,1015.1
2019-01-25T02:12:03.485Z,1015.1
2019-01-25T02:13:04.090Z,1015.1
2019-01-25T02:14:03.296Z,1015
2019-01-25T02:15:03.189Z,1015
2019-01-25T02:16:03.469Z,1015.1
2019-01-25T02:17:03.281Z,1015.1
2019-01-25T02:18:03.244Z,1015.1
2019-01-25T02:19:03.196Z,1015.1
2019-01-25T02:20:03.530Z,1015.1
2019-01-25T02:21:03.678Z,1015.1
2019-01-25T02:22:03.174Z,1015.2
2019-01-25T02:23:03.459Z,1015.2
2019-01-25T02:24:03.707Z,1015.2
2019-01-25T02:25:03.163Z,1015
2019-01-25T02:26:03.434Z,1015.1
2019-01-25T02:27:03.696Z,1015.1
2019-01-25T02:28:03.099Z,1015.1
2019-01-25T02:29:02.779Z,1015.2
2019-01-25T02:30:03.403Z,1015.2
2019-01-25T02:31:03.511Z,1015.2
2019-01-25T02:32:03.955Z,1015.2
2019-01-25T02:33:01.893Z,1015.2
2019-01-25T02:34:02.974Z,1015.2
2019-01-25T02:35:03.510Z,1015.2
2019-01-25T02:36:03.322Z,1015.1
2019-01-25T02:37:03.666Z,1015.1
2019-01-25T02:38:03.443Z,1015.2
2019-01-25T02:39:03.239Z,1015.2
2019-01-25T02:40:04.046Z,1015.2
2019-01-25T02:41:03.715Z,1015.2
2019-01-25T02:42:03.870Z,1015.2
2019-01-25T02:43:03.832Z,1015.2
2019-01-25T02:44:03.063Z,1015.2
2019-01-25T02:45:03.356Z,1015.2
2019-01-25T02:46:03.801Z,1015.3
2019-01-25T02:47:03.184Z,1015.3
2019-01-25T02:48:03.429Z,1015.3
2019-01-25T02:49:03.844Z,1015.2
2019-01-25T02:50:03.577Z,1015.2
2019-01-25T02:51:03.187Z,1015.1
2019-01-25T02:52:03.742Z,1015.1
2019-01-25T02:53:04.528Z,1015.1
2019-01-25T02:54:03.310Z,1015.2
2019-01-25T02:55:03.480Z,1015.2
2019-01-25T02:56:03.288Z,1015.2
2019-01-25T02:57:03.483Z,1015.2
2019-01-25T02:58:03.095Z,1015.1
2019-01-25T02:59:03.367Z,1015.1
2019-01-25T03:00:02.954Z,1015.2
2019-01-25T03:01:03.828Z,1015.2
2019-01-25T03:02:02.857Z,1015.2
2019-01-25T03:03:03.540Z,1015.1
2019-01-25T03:04:03.567Z,1015.2
2019-01-25T03:05:03.749Z,1015.2
2019-01-25T03:06:03.022Z,1015.2
2019-01-25T03:07:03.330Z,1015.2
2019-01-25T03:08:02.702Z,1015.2
2019-01-25T03:09:02.110Z,1015.2
2019-01-25T03:10:03.540Z,1015.2
2019-01-25T03:11:03.114Z,1015.2
2019-01-25T03:12:03.139Z,1015.2
2019-01-25T03:13:03.961Z,1015.2
2019-01-25T03:14:03.639Z,1015.2
2019-01-25T03:15:03.817Z,1015.2
2019-01-25T03:16:03.270Z,1015.2
2019-01-25T03:17:02.518Z,1015.2
2019-01-25T03:18:03.149Z,1015.2
2019-01-25T03:19:03.725Z,1015.2
2019-01-25T03:20:03.176Z,1015.2
2019-01-25T03:21:05.433Z,1015.2
2019-01-25T03:22:03.470Z,1015.2
2019-01-25T03:23:03.053Z,1015.2
2019-01-25T03:24:02.956Z,1015.3
2019-01-25T03:25:03.847Z,1015.2
2019-01-25T03:26:03.513Z,1015.2
2019-01-25T03:27:03.577Z,1015.2
2019-01-25T03:28:03.156Z,1015.2
2019-01-25T03:29:03.306Z,1015.2
2019-01-25T03:30:03.690Z,1015.2
2019-01-25T03:31:02.996Z,1015.2
2019-01-25T03:32:03.186Z,1015.2
2019-01-25T03:33:02.878Z,1015.2
2019-01-25T03:34:03.317Z,1015.2
2019-01-25T03:35:03.283Z,1015.2
2019-01-25T03:36:03.793Z,1015.3
2019-01-25T03:37:03.097Z,1015.3
2019-01-25T03:38:03.683Z,1015.2
2019-01-25T03:39:03.714Z,1015.3
2019-01-25T03:40:03.605Z,1015.3
2019-01-25T03:41:03.095Z,1015.2
2019-01-25T03:42:03.282Z,1015.3
2019-01-25T03:43:03.238Z,1015.2
2019-01-25T03:44:03.033Z,1015.5
2019-01-25T03:45:03.390Z,1015.5
2019-01-25T03:46:03.758Z,1015.3
2019-01-25T03:47:02.979Z,1015.3
2019-01-25T03:48:03.862Z,1015.3
2019-01-25T03:49:03.783Z,1015.3
2019-01-25T03:50:03.066Z,1015.3
2019-01-25T03:51:03.900Z,1015.3
2019-01-25T03:52:03.600Z,1015.3
2019-01-25T03:53:03.707Z,1015.3
2019-01-25T03:54:03.292Z,1015.3
2019-01-25T03:55:03.073Z,1015.4
2019-01-25T03:56:03.583Z,1015.4
2019-01-25T03:57:04.941Z,1015.4
2019-01-25T03:58:03.745Z,1015.3
2019-01-25T03:59:03.327Z,1015.3
2019-01-25T04:00:03.511Z,1015.3
2019-01-25T04:01:03.217Z,1015.3
2019-01-25T04:02:03.399Z,1015.3
2019-01-25T04:03:03.933Z,1015.3
2019-01-25T04:04:03.226Z,1015.3
2019-01-25T04:05:03.075Z,1015.4
2019-01-25T04:06:02.911Z,1015.3
2019-01-25T04:07:02.963Z,1015.3
2019-01-25T04:08:02.962Z,1015.3
2019-01-25T04:09:02.618Z,1015.4
2019-01-25T04:10:03.198Z,1015.4
2019-01-25T04:11:04.528Z,1015.4
2019-01-25T04:12:03.657Z,1015.4
2019-01-25T04:13:03.227Z,1015.3
2019-01-25T04:14:03.776Z,1015.4
2019-01-25T04:15:03.684Z,1015.5
2019-01-25T04:16:03.125Z,1015.4
2019-01-25T04:17:03.123Z,1015.3
2019-01-25T04:18:03.976Z,1015.4
2019-01-25T04:19:03.618Z,1015.4
2019-01-25T04:20:02.734Z,1015.4
2019-01-25T04:21:03.810Z,1015.3
2019-01-25T04:22:03.083Z,1015.3
2019-01-25T04:23:03.747Z,1015.3
2019-01-25T04:24:03.286Z,1015.5
2019-01-25T04:25:03.841Z,1015.5
2019-01-25T04:26:03.874Z,1015.3
2019-01-25T04:27:03.519Z,1015.3
2019-01-25T04:28:03.218Z,1015.5
2019-01-25T04:29:03.123Z,1015.5
2019-01-25T04:30:03.513Z,1015.5
2019-01-25T04:31:03.146Z,1015.5
2019-01-25T04:32:03.261Z,1015.5
2019-01-25T04:33:03.076Z,1015.5
2019-01-25T04:34:03.448Z,1015.5
2019-01-25T04:35:02.933Z,1015.5
2019-01-25T04:36:03.613Z,1015.6
2019-01-25T04:37:03.422Z,1015.5
2019-01-25T04:38:03.193Z,1015.6
2019-01-25T04:39:03.811Z,1015.6
2019-01-25T04:40:03.213Z,1015.5
2019-01-25T04:41:02.883Z,1015.5
2019-01-25T04:42:03.312Z,1015.5
2019-01-25T04:43:03.980Z,1015.5
2019-01-25T04:44:02.936Z,1015.5
2019-01-25T04:45:03.196Z,1015.5
2019-01-25T04:46:03.754Z,1015.5
2019-01-25T04:47:03.505Z,1015.5
2019-01-25T04:48:03.103Z,1015.5
2019-01-25T04:49:03.497Z,1015.5
2019-01-25T04:50:03.067Z,1015.5
2019-01-25T04:51:03.696Z,1015.6
2019-01-25T04:52:03.351Z,1015.6
2019-01-25T04:53:03.646Z,1015.6
2019-01-25T04:54:03.393Z,1015.5
2019-01-25T04:55:03.434Z,1015.6
2019-01-25T04:56:03.047Z,1015.6
2019-01-25T04:57:03.415Z,1015.6
2019-01-25T04:58:03.226Z,1015.6
2019-01-25T04:59:03.147Z,1015.7
2019-01-25T05:00:04.146Z,1015.7
2019-01-25T05:01:03.030Z,1015.6
2019-01-25T05:02:03.664Z,1015.6
2019-01-25T05:03:02.985Z,1015.6
2019-01-25T05:04:03.506Z,1015.6
2019-01-25T05:05:03.401Z,1015.7
2019-01-25T05:06:02.604Z,1015.7
2019-01-25T05:07:03.731Z,1015.6
2019-01-25T05:08:03.491Z,1015.7
2019-01-25T05:09:03.386Z,1015.7
2019-01-25T05:10:03.805Z,1015.7
2019-01-25T05:11:03.264Z,1015.8
2019-01-25T05:12:03.359Z,1015.7
2019-01-25T05:13:03.350Z,1015.7
2019-01-25T05:14:03.447Z,1015.8
2019-01-25T05:15:03.849Z,1015.7
2019-01-25T05:16:03.101Z,1015.7
2019-01-25T05:17:03.025Z,1015.7
2019-01-25T05:18:03.938Z,1015.7
2019-01-25T05:19:03.822Z,1015.6
2019-01-25T05:20:03.315Z,1015.6
2019-01-25T05:21:03.431Z,1015.7
2019-01-25T05:22:03.391Z,1015.7
2019-01-25T05:23:03.250Z,1015.8
2019-01-25T05:24:03.811Z,1015.8
2019-01-25T05:25:03.085Z,1015.7
2019-01-25T05:26:03.792Z,1015.7
2019-01-25T05:27:03.424Z,1015.7
2019-01-25T05:28:03.786Z,1015.9
2019-01-25T05:29:03.907Z,1015.8
2019-01-25T05:30:03.235Z,1015.8
2019-01-25T05:31:02.191Z,1015.8
2019-01-25T05:32:03.875Z,1015.8
2019-01-25T05:33:03.847Z,1015.8
2019-01-25T05:34:03.585Z,1015.8
2019-01-25T05:35:03.751Z,1015.7
2019-01-25T05:36:03.718Z,1015.8
2019-01-25T05:37:03.589Z,1015.7
2019-01-25T05:38:03.670Z,1015.8
2019-01-25T05:39:03.369Z,1015.8
2019-01-25T05:40:03.857Z,1015.9
2019-01-25T05:41:03.720Z,1015.7
2019-01-25T05:42:02.791Z,1015.8
2019-01-25T05:43:03.431Z,1015.9
2019-01-25T05:44:03.245Z,1015.9
2019-01-25T05:45:03.963Z,1015.9
2019-01-25T05:46:03.652Z,1015.9
2019-01-25T05:47:03.240Z,1016.1
2019-01-25T05:48:03.867Z,1016.1
2019-01-25T05:49:03.930Z,1015.9
2019-01-25T05:50:03.848Z,1015.9
2019-01-25T05:51:03.363Z,1016.1
2019-01-25T05:52:03.355Z,1015.9
2019-01-25T05:53:03.272Z,1015.9
2019-01-25T05:54:03.008Z,1016.1
2019-01-25T05:55:03.458Z,1016.1
2019-01-25T05:56:03.816Z,1016.1
2019-01-25T05:57:03.150Z,1016.1
2019-01-25T05:58:02.965Z,1016.1
2019-01-25T05:59:03.467Z,1016.1
2019-01-25T06:00:03.606Z,1016.1
2019-01-25T06:01:02.700Z,1016.1
2019-01-25T06:02:03.076Z,1016.2
2019-01-25T06:03:02.319Z,1016.2
2019-01-25T06:04:03.756Z,1016.2
2019-01-25T06:05:03.167Z,1016.2
2019-01-25T06:06:03.100Z,1016.2
2019-01-25T06:07:03.238Z,1016.2
2019-01-25T06:08:03.518Z,1016.2
2019-01-25T06:09:03.813Z,1016.3
2019-01-25T06:10:03.911Z,1016.2
2019-01-25T06:11:03.766Z,1016.2
2019-01-25T06:12:03.451Z,1016.2
2019-01-25T06:13:03.404Z,1016.2
2019-01-25T06:14:03.076Z,1016.2
2019-01-25T06:15:03.432Z,1016.3
2019-01-25T06:16:02.961Z,1016.3
2019-01-25T06:17:03.528Z,1016.2
2019-01-25T06:18:03.714Z,1016.3
2019-01-25T06:19:03.344Z,1016.3
2019-01-25T06:20:03.397Z,1016.3
2019-01-25T06:21:03.347Z,1016.3
2019-01-25T06:22:02.791Z,1016.4
2019-01-25T06:23:03.846Z,1016.4
2019-01-25T06:24:03.815Z,1016.4
2019-01-25T06:25:03.630Z,1016.4
2019-01-25T06:26:03.782Z,1016.4
2019-01-25T06:27:03.181Z,1016.4
2019-01-25T06:28:03.064Z,1016.5
2019-01-25T06:29:03.190Z,1016.3
2019-01-25T06:30:02.519Z,1016.3
2019-01-25T06:31:03.204Z,1016.3
2019-01-25T06:32:02.082Z,1016.3
2019-01-25T06:33:03.240Z,1016.5
2019-01-25T06:34:02.989Z,1016.3
2019-01-25T06:35:03.615Z,1016.3
2019-01-25T06:36:03.311Z,1016.5
2019-01-25T06:37:03.971Z,1016.3
2019-01-25T06:38:03.299Z,1016.5
2019-01-25T06:39:03.323Z,1016.3
2019-01-25T06:40:03.485Z,1016.5
2019-01-25T06:41:03.834Z,1016.5
2019-01-25T06:42:03.370Z,1016.5
2019-01-25T06:43:03.332Z,1016.5
2019-01-25T06:44:03.437Z,1016.5
2019-01-25T06:45:03.812Z,1016.5
2019-01-25T06:46:03.750Z,1016.3
2019-01-25T06:47:03.570Z,1016.4
2019-01-25T06:48:03.181Z,1016.5
2019-01-25T06:49:03.734Z,1016.5
2019-01-25T06:50:03.642Z,1016.4
2019-01-25T06:51:02.963Z,1016.4
2019-01-25T06:52:03.738Z,1016.4
2019-01-25T06:53:02.996Z,1016.4
2019-01-25T06:54:02.417Z,1016.4
2019-01-25T06:55:03.182Z,1016.5
2019-01-25T06:56:03.701Z,1016.4
2019-01-25T06:57:03.306Z,1016.5
2019-01-25T06:58:03.426Z,1016.4
2019-01-25T06:59:03.063Z,1016.6
2019-01-25T07:00:03.296Z,1016.6
2019-01-25T07:01:02.910Z,1016.6
2019-01-25T07:02:03.431Z,1016.6
2019-01-25T07:03:02.916Z,1016.6
2019-01-25T07:04:05.420Z,1016.6
2019-01-25T07:05:03.276Z,1016.6
2019-01-25T07:06:03.851Z,1016.6
2019-01-25T07:07:03.905Z,1016.6
2019-01-25T07:08:03.443Z,1016.6
2019-01-25T07:09:03.151Z,1016.6
2019-01-25T07:10:03.622Z,1016.6
2019-01-25T07:11:04.189Z,1016.7
2019-01-25T07:12:03.307Z,1016.7
2019-01-25T07:13:03.456Z,1016.6
2019-01-25T07:14:02.638Z,1016.6
2019-01-25T07:15:03.122Z,1016.6
2019-01-25T07:16:02.184Z,1016.6
2019-01-25T07:17:02.918Z,1016.6
2019-01-25T07:18:03.743Z,1016.6
2019-01-25T07:19:03.389Z,1016.6
2019-01-25T07:20:03.927Z,1016.7
2019-01-25T07:21:03.183Z,1016.6
2019-01-25T07:22:03.764Z,1016.7
2019-01-25T07:23:03.051Z,1016.6
2019-01-25T07:24:03.186Z,1016.7
2019-01-25T07:25:03.326Z,1016.7
2019-01-25T07:26:04.281Z,1016.7
2019-01-25T07:27:03.216Z,1016.7
2019-01-25T07:28:02.995Z,1016.7
2019-01-25T07:29:03.060Z,1016.8
2019-01-25T07:30:03.379Z,1016.8
2019-01-25T07:31:04.095Z,1016.7
2019-01-25T07:32:03.782Z,1016.7
2019-01-25T07:33:03.211Z,1016.6
2019-01-25T07:34:03.737Z,1016.6
2019-01-25T07:35:03.763Z,1016.7
2019-01-25T07:36:03.293Z,1016.8
2019-01-25T07:37:03.891Z,1016.9
2019-01-25T07:38:03.566Z,1016.8
2019-01-25T07:39:03.258Z,1016.8
2019-01-25T07:40:03.186Z,1016.7
2019-01-25T07:41:03.985Z,1016.8
2019-01-25T07:42:04.081Z,1016.8
2019-01-25T07:43:03.007Z,1016.9
2019-01-25T07:44:02.144Z,1016.9
2019-01-25T07:45:04.281Z,1016.9
2019-01-25T07:46:03.150Z,1016.9
2019-01-25T07:47:02.433Z,1016.9
2019-01-25T07:48:03.941Z,1016.9
2019-01-25T07:49:03.459Z,1016.9
2019-01-25T07:50:03.997Z,1016.9
2019-01-25T07:51:03.472Z,1017
2019-01-25T07:52:03.430Z,1017
2019-01-25T07:53:03.521Z,1017
2019-01-25T07:54:03.069Z,1017
2019-01-25T07:55:03.312Z,1017.1
2019-01-25T07:56:04.060Z,1017.1
2019-01-25T07:57:03.237Z,1017.1
2019-01-25T07:58:03.227Z,1017.1
2019-01-25T07:59:03.803Z,1017.1
2019-01-25T08:00:03.672Z,1017.1
2019-01-25T08:01:03.414Z,1017.2
2019-01-25T08:02:03.115Z,1017.1
2019-01-25T08:03:03.837Z,1017.1
2019-01-25T08:04:03.218Z,1017.1
2019-01-25T08:05:03.840Z,1017.1
2019-01-25T08:06:03.333Z,1017.1
2019-01-25T08:07:03.167Z,1017.1
2019-01-25T08:08:03.162Z,1017.1
2019-01-25T08:09:03.923Z,1017.1
2019-01-25T08:10:04.345Z,1017.1
2019-01-25T08:11:03.776Z,1017.1
2019-01-25T08:12:08.985Z,1017.1
2019-01-25T08:13:02.079Z,1017.1
2019-01-25T08:14:03.287Z,1017.1
2019-01-25T08:15:03.749Z,1017.2
2019-01-25T08:16:03.323Z,1017.2
2019-01-25T08:17:04.107Z,1017.2
2019-01-25T08:18:03.522Z,1017
2019-01-25T08:19:03.574Z,1017.1
2019-01-25T08:20:03.266Z,1017.2
2019-01-25T08:21:02.987Z,1017.1
2019-01-25T08:22:03.637Z,1017.1
2019-01-25T08:23:03.181Z,1017.1
2019-01-25T08:24:03.105Z,1017.1
2019-01-25T08:25:03.715Z,1017.1
2019-01-25T08:26:03.595Z,1017.2
2019-01-25T08:27:03.552Z,1017.2
2019-01-25T08:28:03.988Z,1017.1
2019-01-25T08:29:03.453Z,1017.1
2019-01-25T08:30:03.547Z,1017.2
2019-01-25T08:31:03.506Z,1017.1
2019-01-25T08:32:03.877Z,1017.2
2019-01-25T08:33:03.509Z,1017.2
2019-01-25T08:34:02.791Z,1017.2
2019-01-25T08:35:02.947Z,1017.2
2019-01-25T08:36:03.985Z,1017.2
2019-01-25T08:37:04.020Z,1017.2
2019-01-25T08:38:02.255Z,1017.1
2019-01-25T08:39:03.955Z,1017.1
2019-01-25T08:40:03.179Z,1017.2
2019-01-25T08:41:02.149Z,1017.3
2019-01-25T08:42:03.566Z,1017.2
2019-01-25T08:43:03.909Z,1017.2
2019-01-25T08:44:03.950Z,1017.2
2019-01-25T08:45:04.048Z,1017.2
2019-01-25T08:46:03.773Z,1017.2
2019-01-25T08:47:03.496Z,1017.2
2019-01-25T08:48:03.677Z,1017.1
2019-01-25T08:49:03.504Z,1017.1
2019-01-25T08:50:04.142Z,1017.1
2019-01-25T08:51:04.457Z,1017
2019-01-25T08:52:03.731Z,1017
2019-01-25T08:53:03.460Z,1017.2
2019-01-25T08:54:03.631Z,1017.2
2019-01-25T08:55:03.832Z,1017.3
2019-01-25T08:56:03.381Z,1017.3
2019-01-25T08:57:03.382Z,1017.2
2019-01-25T08:58:03.245Z,1017.2
2019-01-25T08:59:03.323Z,1017.2
2019-01-25T09:00:03.589Z,1017.2
2019-01-25T09:01:03.350Z,1017.2
2019-01-25T09:02:03.851Z,1017.2
2019-01-25T09:03:03.610Z,1017.3
2019-01-25T09:04:02.273Z,1017.3
2019-01-25T09:05:03.106Z,1017.3
2019-01-25T09:06:04.123Z,1017.3
2019-01-25T09:07:03.248Z,1017.2
2019-01-25T09:08:03.980Z,1017.2
2019-01-25T09:09:03.309Z,1017.2
2019-01-25T09:10:04.092Z,1017.2
2019-01-25T09:11:03.336Z,1017.2
2019-01-25T09:12:03.771Z,1017.2
2019-01-25T09:13:03.803Z,1017.3
2019-01-25T09:14:03.596Z,1017.3
2019-01-25T09:15:02.870Z,1017.3
2019-01-25T09:16:03.561Z,1017.3
2019-01-25T09:17:03.762Z,1017.3
2019-01-25T09:18:03.128Z,1017.3
2019-01-25T09:19:02.997Z,1017.4
2019-01-25T09:20:03.876Z,1017.4
2019-01-25T09:21:02.835Z,1017.3
2019-01-25T09:22:03.639Z,1017.3
2019-01-25T09:23:03.257Z,1017.3
2019-01-25T09:24:03.621Z,1017.3
2019-01-25T09:25:03.276Z,1017.3
2019-01-25T09:26:02.563Z,1017.4
2019-01-25T09:27:02.974Z,1017.5
2019-01-25T09:28:02.068Z,1017.5
2019-01-25T09:29:03.238Z,1017.6
2019-01-25T09:30:03.723Z,1017.5
2019-01-25T09:31:03.222Z,1017.4
2019-01-25T09:32:03.517Z,1017.4
2019-01-25T09:33:04.012Z,1017.4
2019-01-25T09:34:03.510Z,1017.4
2019-01-25T09:35:03.666Z,1017.4
2019-01-25T09:36:03.091Z,1017.4
2019-01-25T09:37:02.117Z,1017.3
2019-01-25T09:38:03.205Z,1017.4
2019-01-25T09:39:03.166Z,1017.4
2019-01-25T09:40:03.272Z,1017.4
2019-01-25T09:41:03.022Z,1017.5
2019-01-25T09:42:02.788Z,1017.3
2019-01-25T09:43:03.831Z,1017.3
2019-01-25T09:44:03.895Z,1017.5
2019-01-25T09:45:03.241Z,1017.5
2019-01-25T09:46:03.324Z,1017.5
2019-01-25T09:47:03.057Z,1017.4
2019-01-25T09:48:03.792Z,1017.5
2019-01-25T09:49:03.549Z,1017.5
2019-01-25T09:50:03.465Z,1017.5
2019-01-25T09:51:02.984Z,1017.5
2019-01-25T09:52:03.269Z,1017.4
2019-01-25T09:53:03.199Z,1017.4
2019-01-25T09:54:03.987Z,1017.5
2019-01-25T09:55:03.418Z,1017.5
2019-01-25T09:56:03.688Z,1017.5
2019-01-25T09:57:03.362Z,1017.5
2019-01-25T09:58:03.546Z,1017.5
2019-01-25T09:59:03.268Z,1017.5
2019-01-25T10:00:03.208Z,1017.4
2019-01-25T10:01:02.900Z,1017.4
2019-01-25T10:02:02.192Z,1017.4
2019-01-25T10:03:03.881Z,1017.4
2019-01-25T10:04:02.795Z,1017.5
2019-01-25T10:05:03.904Z,1017.5
2019-01-25T10:06:03.766Z,1017.5
2019-01-25T10:07:02.974Z,1017.5
2019-01-25T10:08:03.098Z,1017.5
2019-01-25T10:09:03.306Z,1017.6
2019-01-25T10:10:03.549Z,1017.5
2019-01-25T10:11:03.073Z,1017.5
2019-01-25T10:12:03.478Z,1017.5
2019-01-25T10:13:03.111Z,1017.6
2019-01-25T10:14:03.788Z,1017.6
2019-01-25T10:15:03.598Z,1017.4
2019-01-25T10:16:03.470Z,1017.6
2019-01-25T10:17:04.029Z,1017.6
2019-01-25T10:18:04.064Z,1017.5
2019-01-25T10:19:03.927Z,1017.4
2019-01-25T10:20:03.229Z,1017.4
2019-01-25T10:21:03.326Z,1017.6
2019-01-25T10:22:02.922Z,1017.6
2019-01-25T10:23:02.939Z,1017.6
2019-01-25T10:24:03.849Z,1017.4
2019-01-25T10:25:03.900Z,1017.6
2019-01-25T10:26:02.629Z,1017.5
2019-01-25T10:27:03.507Z,1017.5
2019-01-25T10:28:03.071Z,1017.5
2019-01-25T10:29:04.325Z,1017.5
2019-01-25T10:30:03.152Z,1017.5
2019-01-25T10:31:02.828Z,1017.5
2019-01-25T10:32:03.781Z,1017.5
2019-01-25T10:33:03.296Z,1017.5
2019-01-25T10:34:02.360Z,1017.4
2019-01-25T10:35:03.331Z,1017.5
2019-01-25T10:36:03.445Z,1017.5
2019-01-25T10:37:03.726Z,1017.5
2019-01-25T10:38:05.223Z,1017.5
2019-01-25T10:39:03.255Z,1017.4
2019-01-25T10:40:03.201Z,1017.5
2019-01-25T10:41:03.104Z,1017.5
2019-01-25T10:42:03.650Z,1017.5
2019-01-25T10:43:02.936Z,1017.5
2019-01-25T10:44:03.585Z,1017.5
2019-01-25T10:45:05.114Z,1017.5
2019-01-25T10:46:03.852Z,1017.6
2019-01-25T10:47:03.044Z,1017.5
2019-01-25T10:48:03.550Z,1017.5
2019-01-25T10:49:03.201Z,1017.5
2019-01-25T10:50:03.375Z,1017.6
2019-01-25T10:51:03.018Z,1017.5
2019-01-25T10:52:03.078Z,1017.3
2019-01-25T10:53:03.628Z,1017.3
2019-01-25T10:54:03.724Z,1017.4
2019-01-25T10:55:02.573Z,1017.4
2019-01-25T10:56:03.866Z,1017.4
2019-01-25T10:57:03.583Z,1017.4
2019-01-25T10:58:03.871Z,1017.5
2019-01-25T10:59:03.357Z,1017.4
2019-01-25T11:00:03.906Z,1017.4
2019-01-25T11:01:03.128Z,1017.4
2019-01-25T11:02:03.339Z,1017.4
2019-01-25T11:03:03.824Z,1017.4
2019-01-25T11:04:03.804Z,1017.4
2019-01-25T11:05:03.310Z,1017.3
2019-01-25T11:06:03.427Z,1017.2
2019-01-25T11:07:03.755Z,1017.2
2019-01-25T11:08:02.946Z,1017.2
2019-01-25T11:09:03.921Z,1017.2
2019-01-25T11:10:04.132Z,1017.2
2019-01-25T11:11:03.821Z,1017.2
2019-01-25T11:12:03.666Z,1017.2
2019-01-25T11:13:03.299Z,1017.2
2019-01-25T11:14:03.639Z,1017.2
2019-01-25T11:15:03.312Z,1017.2
2019-01-25T11:16:03.743Z,1017.1
2019-01-25T11:17:03.812Z,1017.1
2019-01-25T11:18:03.489Z,1017.1
2019-01-25T11:19:03.198Z,1017.1
2019-01-25T11:20:03.991Z,1017
2019-01-25T11:21:03.582Z,1016.9
2019-01-25T11:22:03.107Z,1017
2019-01-25T11:23:02.321Z,1017.1
2019-01-25T11:24:08.388Z,1017
2019-01-25T11:25:02.084Z,1017.1
2019-01-25T11:26:03.697Z,1017.2
2019-01-25T11:27:03.846Z,1017
2019-01-25T11:28:03.158Z,1017
2019-01-25T11:29:03.508Z,1017
2019-01-25T11:30:03.476Z,1017
2019-01-25T11:31:03.907Z,1017.2
2019-01-25T11:32:03.496Z,1017.2
2019-01-25T11:33:03.659Z,1017.2
2019-01-25T11:34:03.088Z,1017.2
2019-01-25T11:35:03.951Z,1017.1
2019-01-25T11:36:03.780Z,1017.2
2019-01-25T11:37:03.361Z,1017.2
2019-01-25T11:38:03.527Z,1017.1
2019-01-25T11:39:02.974Z,1017.1
2019-01-25T11:40:03.941Z,1017.2
2019-01-25T11:41:03.535Z,1017.2
2019-01-25T11:42:03.470Z,1017.2
2019-01-25T11:43:09.568Z,1017.2
2019-01-25T11:44:03.861Z,1017.2
2019-01-25T11:45:03.541Z,1017.2
2019-01-25T11:46:03.212Z,1017.2
2019-01-25T11:47:03.218Z,1017.2
2019-01-25T11:48:03.118Z,1017.2
2019-01-25T11:49:02.996Z,1017.2
2019-01-25T11:50:03.318Z,1017.2
2019-01-25T11:51:03.523Z,1017.2
2019-01-25T11:52:03.549Z,1017.2
2019-01-25T11:53:03.677Z,1017.3
2019-01-25T11:54:03.852Z,1017.3
2019-01-25T11:55:04.315Z,1017.2
2019-01-25T11:56:03.075Z,1017.2
2019-01-25T11:57:03.215Z,1017.2
2019-01-25T11:58:03.328Z,1017.3
2019-01-25T11:59:03.927Z,1017.2
2019-01-25T12:00:03.222Z,1017.2
2019-01-25T12:01:02.510Z,1017.2
2019-01-25T12:02:02.587Z,1017.2
2019-01-25T12:03:03.266Z,1017.2
2019-01-25T12:04:03.942Z,1017.2
2019-01-25T12:05:02.991Z,1017.2
2019-01-25T12:06:03.495Z,1017.4
2019-01-25T12:07:03.060Z,1017.3
2019-01-25T12:08:03.616Z,1017.3
2019-01-25T12:09:03.383Z,1017.3
2019-01-25T12:10:03.409Z,1017.5
2019-01-25T12:11:02.932Z,1017.5
2019-01-25T12:12:03.782Z,1017.5
2019-01-25T12:13:03.627Z,1017.5
2019-01-25T12:14:04.558Z,1017.4
2019-01-25T12:15:03.372Z,1017.5
2019-01-25T12:16:03.267Z,1017.6
2019-01-25T12:17:03.576Z,1017.6
2019-01-25T12:18:03.107Z,1017.6
2019-01-25T12:19:02.977Z,1017.5
2019-01-25T12:20:03.885Z,1017.5
2019-01-25T12:21:03.187Z,1017.6
2019-01-25T12:22:03.112Z,1017.6
2019-01-25T12:23:03.327Z,1017.4
2019-01-25T12:24:03.824Z,1017.4
2019-01-25T12:25:03.495Z,1017.4
2019-01-25T12:26:03.007Z,1017.4
2019-01-25T12:27:03.583Z,1017.4
2019-01-25T12:28:05.915Z,1017.4
2019-01-25T12:29:02.036Z,1017.4
2019-01-25T12:30:02.079Z,1017.4